ナンディ の空港の天気 - METARとTAF

ナンディ国際空港 ( NFFN / NAN ) - フィジー ナンディ (ビティレブ島)
飛行場実況気象(Metar)
観測時間08/05 10:00 FJT (08/04 22:00 UTC)
風向・風速南東 2m/s
視程10km以上
天気現象
少しの雲 雲底高度 910m
気温27℃
湿度66%
気圧1013hPa
METARNFFN 042200Z 14004KT 9999 FEW030 27/20 Q1013 NOSIG
過去の天気等 Google飛行場航空写真 Wunderground天気予報

過去48時間のMETAR

飛行場予報(TAF)
発表時間: 8/05 05:12 FJT (8/04 17:12 UTC)
予報対象時間: 5日6時 FJT ~ 6日6時 FJT
風向・風速南南東 4m/s
視程10km以上
少しの雲 雲底高度 820m
全天の4割程度の雲 雲底高度 1460m
5日10時 FJT ~ 5日12時 FJT に徐々に
風向・風速北西 5m/s
5日16時 FJT ~ 5日18時 FJT に徐々に
風向・風速南南東 4m/s
TAF NFFN 041712Z 0418/0518 16008KT 9999 FEW027 SCT048
BECMG 0422/0424 32010KT
BECMG 0504/0506 15007KT